createdAt,value
2019-03-31T00:00:51.105Z,9.96
2019-03-31T00:01:51.088Z,9.87
2019-03-31T00:02:51.361Z,9.94
2019-03-31T00:03:51.041Z,9.83
2019-03-31T00:05:51.027Z,9.78
2019-03-31T00:07:51.074Z,9.81
2019-03-31T00:08:51.629Z,9.80
2019-03-31T00:09:51.519Z,9.81
2019-03-31T00:10:50.887Z,9.81
2019-03-31T00:11:50.872Z,9.77
2019-03-31T00:12:50.848Z,9.67
2019-03-31T00:14:50.795Z,9.70
2019-03-31T00:15:50.782Z,9.70
2019-03-31T00:16:52.640Z,9.83
2019-03-31T00:17:50.833Z,9.70
2019-03-31T00:18:50.822Z,9.72
2019-03-31T00:19:50.685Z,9.66
2019-03-31T00:20:52.162Z,9.78
2019-03-31T00:21:50.745Z,9.72
2019-03-31T00:22:50.621Z,9.75
2019-03-31T00:24:53.427Z,9.65
2019-03-31T00:25:50.656Z,9.59
2019-03-31T00:26:50.549Z,9.60
2019-03-31T00:27:50.508Z,9.54
2019-03-31T00:30:50.450Z,9.41
2019-03-31T00:31:50.727Z,9.26
2019-03-31T00:32:50.412Z,9.29
2019-03-31T00:33:50.384Z,9.36
2019-03-31T00:34:50.359Z,9.23
2019-03-31T00:35:50.372Z,9.27
2019-03-31T00:36:50.316Z,9.23
2019-03-31T00:37:50.287Z,9.16
2019-03-31T00:38:50.667Z,9.14
2019-03-31T00:39:50.242Z,9.04
2019-03-31T00:40:50.229Z,9.08
2019-03-31T00:41:50.218Z,9.12
2019-03-31T00:42:50.179Z,9.06
2019-03-31T00:43:50.171Z,9.06
2019-03-31T00:44:50.147Z,9.09
2019-03-31T00:45:50.428Z,9.01
2019-03-31T00:46:50.091Z,9.03
2019-03-31T00:47:50.281Z,8.95
2019-03-31T00:48:50.054Z,8.96
2019-03-31T00:49:50.036Z,8.95
2019-03-31T00:50:50.060Z,8.96
2019-03-31T00:51:50.283Z,8.93
2019-03-31T00:53:50.031Z,8.81
2019-03-31T00:54:50.034Z,8.78
2019-03-31T00:55:49.892Z,8.71
2019-03-31T00:56:51.306Z,8.77
2019-03-31T00:57:50.094Z,8.70
2019-03-31T00:58:50.226Z,8.70
2019-03-31T01:00:49.875Z,8.57
2019-03-31T01:01:49.761Z,8.62
2019-03-31T01:02:50.032Z,8.57
2019-03-31T01:03:50.070Z,8.55
2019-03-31T01:05:49.767Z,8.56
2019-03-31T01:06:49.843Z,8.52
2019-03-31T01:07:49.622Z,8.50
2019-03-31T01:08:49.603Z,8.38
2019-03-31T01:09:49.875Z,8.39
2019-03-31T01:10:49.558Z,8.53
2019-03-31T01:13:49.483Z,8.47
2019-03-31T01:14:49.461Z,8.35
2019-03-31T01:16:49.715Z,8.39
2019-03-31T01:17:49.506Z,8.42
2019-03-31T01:20:49.329Z,8.46
2019-03-31T01:21:49.304Z,8.42
2019-03-31T01:22:49.587Z,8.41
2019-03-31T01:23:49.262Z,8.32
2019-03-31T01:24:49.235Z,8.35
2019-03-31T01:25:49.221Z,8.32
2019-03-31T01:26:49.198Z,8.37
2019-03-31T01:27:49.261Z,8.31
2019-03-31T01:28:49.151Z,8.31
2019-03-31T01:29:49.444Z,8.23
2019-03-31T01:30:49.100Z,8.19
2019-03-31T01:31:50.586Z,8.20
2019-03-31T01:32:49.156Z,8.20
2019-03-31T01:33:49.226Z,8.19
2019-03-31T01:34:49.729Z,8.19
2019-03-31T01:35:49.086Z,8.20
2019-03-31T01:37:49.271Z,8.13
2019-03-31T01:38:48.982Z,8.16
2019-03-31T01:39:48.888Z,8.06
2019-03-31T01:40:48.884Z,8.13
2019-03-31T01:41:48.848Z,8.04
2019-03-31T01:43:48.803Z,7.96
2019-03-31T01:44:49.075Z,7.96
2019-03-31T01:45:48.761Z,8.01
2019-03-31T01:46:48.730Z,7.84
2019-03-31T01:47:49.019Z,7.88
2019-03-31T01:48:48.785Z,7.91
2019-03-31T01:49:48.660Z,7.88
2019-03-31T01:50:48.648Z,7.91
2019-03-31T01:51:48.935Z,7.78
2019-03-31T01:52:49.296Z,7.81
2019-03-31T01:53:48.576Z,7.80
2019-03-31T01:54:48.685Z,7.86
2019-03-31T01:56:48.506Z,7.71
2019-03-31T01:57:48.490Z,7.69
2019-03-31T01:58:48.757Z,7.57
2019-03-31T01:59:48.429Z,7.62
2019-03-31T02:00:48.407Z,7.55
2019-03-31T02:01:48.585Z,7.57
2019-03-31T02:02:48.463Z,7.58
2019-03-31T02:03:48.349Z,7.64
2019-03-31T02:04:48.420Z,7.57
2019-03-31T02:05:48.595Z,7.54
2019-03-31T02:06:48.278Z,7.54
2019-03-31T02:08:48.244Z,7.54
2019-03-31T02:09:48.205Z,7.60
2019-03-31T02:10:48.276Z,7.50
2019-03-31T02:11:48.401Z,7.54
2019-03-31T02:12:48.125Z,7.40
2019-03-31T02:13:48.141Z,7.39
2019-03-31T02:14:48.131Z,7.39
2019-03-31T02:15:48.060Z,7.33
2019-03-31T02:16:48.037Z,7.33
2019-03-31T02:17:48.311Z,7.31
2019-03-31T02:18:47.986Z,7.26
2019-03-31T02:19:47.980Z,7.39
2019-03-31T02:20:47.943Z,7.28
2019-03-31T02:21:47.976Z,7.34
2019-03-31T02:22:47.898Z,7.34
2019-03-31T02:23:48.126Z,7.39
2019-03-31T02:25:47.926Z,7.33
2019-03-31T02:26:48.102Z,7.29
2019-03-31T02:27:47.783Z,7.36
2019-03-31T02:28:47.753Z,7.37
2019-03-31T02:29:48.037Z,7.33
2019-03-31T02:30:47.815Z,7.39
2019-03-31T02:31:47.691Z,7.44
2019-03-31T02:32:47.660Z,7.46
2019-03-31T02:33:47.739Z,7.40
2019-03-31T02:34:47.926Z,7.50
2019-03-31T02:35:47.891Z,7.44
2019-03-31T02:36:47.650Z,7.49
2019-03-31T02:37:47.654Z,7.49
2019-03-31T02:38:47.636Z,7.52
2019-03-31T02:40:47.500Z,7.54
2019-03-31T02:41:47.763Z,7.47
2019-03-31T02:42:47.537Z,7.50
2019-03-31T02:43:47.407Z,7.57
2019-03-31T02:44:47.480Z,7.54
2019-03-31T02:45:47.357Z,7.57
2019-03-31T02:46:47.472Z,7.54
2019-03-31T02:47:47.612Z,7.57
2019-03-31T02:48:47.351Z,7.50
2019-03-31T02:49:47.298Z,7.55
2019-03-31T02:51:47.336Z,7.49
2019-03-31T02:52:47.195Z,7.52
2019-03-31T02:53:47.171Z,7.60
2019-03-31T02:55:47.491Z,7.60
2019-03-31T02:56:47.204Z,7.52
2019-03-31T02:58:47.463Z,7.55
2019-03-31T02:59:47.333Z,7.61
2019-03-31T03:00:47.105Z,7.62
2019-03-31T03:01:46.987Z,7.61
2019-03-31T03:03:48.063Z,7.58
2019-03-31T03:04:46.915Z,7.64
2019-03-31T03:05:46.895Z,7.68
2019-03-31T03:06:46.979Z,7.64
2019-03-31T03:07:46.853Z,7.68
2019-03-31T03:08:46.831Z,7.73
2019-03-31T03:09:46.810Z,7.66
2019-03-31T03:10:47.183Z,7.64
2019-03-31T03:11:46.765Z,7.68
2019-03-31T03:13:46.718Z,7.73
2019-03-31T03:14:47.614Z,7.74
2019-03-31T03:15:46.665Z,7.80
2019-03-31T03:16:46.654Z,7.78
2019-03-31T03:17:46.919Z,7.71
2019-03-31T03:18:46.599Z,7.77
2019-03-31T03:19:46.673Z,7.80
2019-03-31T03:20:46.600Z,7.76
2019-03-31T03:21:46.637Z,7.80
2019-03-31T03:22:46.504Z,7.78
2019-03-31T03:23:46.487Z,7.81
2019-03-31T03:24:46.765Z,7.87
2019-03-31T03:26:46.473Z,7.86
2019-03-31T03:27:46.505Z,7.92
2019-03-31T03:28:46.381Z,7.88
2019-03-31T03:29:46.414Z,7.88
2019-03-31T03:30:46.430Z,7.88
2019-03-31T03:31:46.612Z,7.88
2019-03-31T03:33:12.425Z,7.88
2019-03-31T03:33:46.251Z,7.98
2019-03-31T03:34:46.278Z,8.05
2019-03-31T03:35:46.426Z,7.96
2019-03-31T03:36:46.189Z,7.99
2019-03-31T03:37:46.467Z,8.04
2019-03-31T03:38:46.146Z,8.04
2019-03-31T03:40:46.088Z,8.04
2019-03-31T03:41:46.189Z,8.09
2019-03-31T03:42:46.061Z,8.06
2019-03-31T03:43:55.389Z,8.04
2019-03-31T03:44:46.101Z,8.06
2019-03-31T03:45:46.035Z,8.06
2019-03-31T03:47:45.946Z,8.16
2019-03-31T03:49:45.993Z,8.12
2019-03-31T03:50:46.213Z,8.14
2019-03-31T03:51:46.141Z,8.12
2019-03-31T03:52:45.822Z,8.13
2019-03-31T03:54:45.769Z,8.16
2019-03-31T03:56:45.853Z,8.13
2019-03-31T03:57:46.011Z,8.19
2019-03-31T03:58:45.801Z,8.10
2019-03-31T04:01:45.612Z,8.13
2019-03-31T04:02:45.691Z,8.12
2019-03-31T04:03:45.869Z,8.10
2019-03-31T04:05:45.635Z,8.13
2019-03-31T04:08:45.549Z,8.10
2019-03-31T04:10:45.710Z,8.14
2019-03-31T04:11:45.387Z,8.14
2019-03-31T04:12:45.374Z,8.13
2019-03-31T04:13:45.344Z,8.12
2019-03-31T04:14:45.421Z,8.09
2019-03-31T04:15:45.304Z,8.05
2019-03-31T04:16:45.574Z,8.02
2019-03-31T04:17:45.549Z,7.99
2019-03-31T04:18:45.272Z,7.95
2019-03-31T04:19:45.209Z,7.84
2019-03-31T04:20:45.185Z,7.87
2019-03-31T04:21:45.153Z,7.87
2019-03-31T04:22:45.236Z,7.91
2019-03-31T04:23:45.126Z,7.81
2019-03-31T04:24:45.421Z,7.81
2019-03-31T04:25:45.064Z,7.83
2019-03-31T04:26:45.039Z,7.84
2019-03-31T04:27:45.021Z,7.71
2019-03-31T04:28:45.169Z,7.68
2019-03-31T04:29:44.968Z,7.69
2019-03-31T04:30:44.951Z,7.68
2019-03-31T04:31:45.277Z,7.73
2019-03-31T04:32:44.911Z,7.55
2019-03-31T04:33:51.498Z,7.55
2019-03-31T04:34:44.856Z,7.54
2019-03-31T04:35:44.832Z,7.49
2019-03-31T04:36:44.822Z,7.54
2019-03-31T04:37:45.087Z,7.47
2019-03-31T04:38:45.776Z,7.55
2019-03-31T04:39:44.744Z,7.40
2019-03-31T04:40:44.717Z,7.43
2019-03-31T04:41:44.792Z,7.37
2019-03-31T04:43:44.760Z,7.29
2019-03-31T04:45:44.916Z,7.28
2019-03-31T04:46:44.890Z,7.24
2019-03-31T04:47:44.582Z,7.24
2019-03-31T04:48:44.551Z,7.15
2019-03-31T04:49:44.566Z,7.13
2019-03-31T04:50:44.486Z,7.13
2019-03-31T04:51:44.704Z,7.13
2019-03-31T04:52:44.736Z,7.01
2019-03-31T04:53:44.525Z,6.99
2019-03-31T04:54:44.702Z,7.06
2019-03-31T04:55:44.369Z,7.06
2019-03-31T04:56:44.545Z,7.00
2019-03-31T04:57:44.324Z,6.96
2019-03-31T04:58:44.598Z,7.00
2019-03-31T04:59:44.277Z,7.07
2019-03-31T05:01:44.281Z,7.06
2019-03-31T05:02:44.208Z,7.00
2019-03-31T05:03:44.181Z,7.01
2019-03-31T05:04:44.460Z,6.99
2019-03-31T05:06:44.113Z,6.91
2019-03-31T05:07:44.090Z,6.91
2019-03-31T05:08:44.204Z,6.86
2019-03-31T05:09:44.147Z,6.86
2019-03-31T05:10:45.059Z,6.86
2019-03-31T05:11:43.999Z,6.88
2019-03-31T05:12:43.970Z,6.78
2019-03-31T05:13:43.949Z,6.79
2019-03-31T05:14:43.946Z,6.82
2019-03-31T05:15:43.903Z,6.73
2019-03-31T05:16:44.234Z,6.75
2019-03-31T05:18:43.838Z,6.82
2019-03-31T05:19:43.806Z,6.75
2019-03-31T05:20:43.787Z,6.81
2019-03-31T05:22:43.743Z,6.83
2019-03-31T05:23:43.965Z,6.91
2019-03-31T05:25:43.769Z,6.91
2019-03-31T05:26:43.671Z,6.97
2019-03-31T05:27:43.779Z,7.01
2019-03-31T05:28:44.328Z,7.07
2019-03-31T05:29:43.938Z,7.01
2019-03-31T05:30:43.690Z,7.21
2019-03-31T05:31:43.540Z,7.08
2019-03-31T05:32:43.541Z,7.13
2019-03-31T05:33:43.479Z,7.21
2019-03-31T05:34:43.459Z,7.24
2019-03-31T05:36:43.760Z,7.28
2019-03-31T05:37:50.716Z,7.31
2019-03-31T05:38:43.467Z,7.33
2019-03-31T05:39:43.342Z,7.26
2019-03-31T05:40:43.319Z,7.36
2019-03-31T05:41:43.394Z,7.36
2019-03-31T05:42:43.376Z,7.40
2019-03-31T05:43:43.657Z,7.39
2019-03-31T05:44:43.926Z,7.40
2019-03-31T05:45:43.308Z,7.47
2019-03-31T05:46:43.183Z,7.49
2019-03-31T05:47:43.179Z,7.47
2019-03-31T05:48:43.173Z,7.57
2019-03-31T05:49:43.225Z,7.57
2019-03-31T05:50:43.829Z,7.66
2019-03-31T05:51:43.179Z,7.69
2019-03-31T05:52:43.044Z,7.73
2019-03-31T05:53:43.180Z,7.76
2019-03-31T05:54:42.998Z,7.83
2019-03-31T05:55:42.983Z,7.74
2019-03-31T05:57:43.120Z,7.78
2019-03-31T05:58:43.355Z,7.74
2019-03-31T05:59:42.982Z,7.78
2019-03-31T06:01:42.836Z,7.86
2019-03-31T06:02:42.819Z,7.92
2019-03-31T06:04:42.781Z,7.84
2019-03-31T06:05:43.083Z,7.84
2019-03-31T06:06:43.034Z,7.99
2019-03-31T06:07:42.705Z,7.88
2019-03-31T06:08:43.392Z,7.96
2019-03-31T06:09:42.663Z,8.02
2019-03-31T06:10:42.635Z,8.01
2019-03-31T06:11:42.621Z,8.05
2019-03-31T06:14:42.945Z,8.04
2019-03-31T06:15:42.521Z,8.01
2019-03-31T06:16:42.509Z,8.04
2019-03-31T06:18:42.750Z,8.06
2019-03-31T06:21:42.687Z,8.13
2019-03-31T06:22:42.420Z,8.13
2019-03-31T06:23:42.421Z,8.17
2019-03-31T06:24:42.427Z,8.19
2019-03-31T06:25:42.526Z,8.19
2019-03-31T06:26:42.274Z,8.19
2019-03-31T06:27:42.658Z,8.19
2019-03-31T06:28:42.532Z,8.34
2019-03-31T06:29:42.209Z,8.37
2019-03-31T06:30:42.192Z,8.31
2019-03-31T06:31:42.180Z,8.34
2019-03-31T06:33:42.429Z,8.39
2019-03-31T06:34:47.679Z,8.38
2019-03-31T06:35:42.166Z,8.34
2019-03-31T06:36:42.065Z,8.37
2019-03-31T06:37:42.191Z,8.37
2019-03-31T06:38:42.181Z,8.44
2019-03-31T06:39:42.314Z,8.41
2019-03-31T06:40:42.036Z,8.52
2019-03-31T06:41:42.130Z,8.60
2019-03-31T06:43:42.006Z,8.62
2019-03-31T06:44:42.348Z,8.62
2019-03-31T06:45:42.155Z,8.67
2019-03-31T06:46:41.835Z,8.67
2019-03-31T06:48:41.786Z,8.80
2019-03-31T06:49:42.494Z,8.85
2019-03-31T06:50:41.844Z,8.81
2019-03-31T06:51:42.139Z,8.98
2019-03-31T06:52:41.806Z,8.93
2019-03-31T06:53:41.736Z,8.99
2019-03-31T06:54:41.667Z,8.89
2019-03-31T06:55:41.645Z,8.92
2019-03-31T06:56:41.714Z,9.01
2019-03-31T06:57:42.102Z,9.09
2019-03-31T06:58:41.673Z,9.09
2019-03-31T07:00:41.833Z,9.15
2019-03-31T07:02:41.558Z,9.12
2019-03-31T07:03:41.476Z,9.12
2019-03-31T07:04:41.776Z,8.99
2019-03-31T07:05:41.439Z,9.11
2019-03-31T07:06:41.405Z,9.08
2019-03-31T07:07:41.398Z,9.09
2019-03-31T07:09:41.354Z,9.09
2019-03-31T07:10:41.524Z,9.24
2019-03-31T07:11:41.602Z,9.36
2019-03-31T07:12:41.290Z,9.44
2019-03-31T07:13:41.288Z,9.40
2019-03-31T07:14:41.335Z,9.40
2019-03-31T07:15:41.216Z,9.47
2019-03-31T07:16:41.271Z,9.29
2019-03-31T07:18:42.360Z,9.24
2019-03-31T07:19:41.427Z,9.44
2019-03-31T07:20:41.122Z,9.23
2019-03-31T07:21:41.188Z,9.12
2019-03-31T07:22:41.897Z,9.19
2019-03-31T07:24:41.369Z,9.18
2019-03-31T07:25:41.019Z,9.19
2019-03-31T07:27:41.361Z,9.32
2019-03-31T07:28:40.941Z,9.36
2019-03-31T07:29:40.919Z,9.27
2019-03-31T07:31:41.028Z,9.44
2019-03-31T07:33:40.933Z,9.48
2019-03-31T07:35:41.322Z,9.57
2019-03-31T07:36:40.781Z,9.69
2019-03-31T07:37:47.041Z,9.90
2019-03-31T07:38:40.909Z,9.75
2019-03-31T07:39:40.892Z,9.70
2019-03-31T07:40:40.764Z,9.75
2019-03-31T07:41:40.849Z,9.90
2019-03-31T07:42:40.956Z,10.02
2019-03-31T07:43:40.662Z,10.10
2019-03-31T07:44:40.622Z,10.14
2019-03-31T07:45:40.662Z,11.15
2019-03-31T07:46:40.761Z,11.80
2019-03-31T07:47:40.602Z,12.32
2019-03-31T07:48:40.954Z,12.36
2019-03-31T07:50:40.618Z,11.91
2019-03-31T07:51:40.473Z,11.76
2019-03-31T07:52:40.552Z,11.66
2019-03-31T07:53:40.431Z,11.36
2019-03-31T07:54:40.805Z,11.33
2019-03-31T07:55:40.400Z,11.87
2019-03-31T07:56:40.390Z,12.35
2019-03-31T07:57:40.385Z,12.33
2019-03-31T07:58:40.363Z,12.65
2019-03-31T07:59:40.317Z,13.20
2019-03-31T08:01:40.585Z,13.93
2019-03-31T08:03:40.369Z,12.46
2019-03-31T08:04:40.302Z,12.18
2019-03-31T08:05:40.207Z,12.03
2019-03-31T08:06:40.361Z,13.29
2019-03-31T08:07:40.481Z,13.76
2019-03-31T08:08:40.154Z,14.12
2019-03-31T08:09:40.263Z,14.37
2019-03-31T08:11:40.106Z,14.95
2019-03-31T08:12:40.099Z,15.14
2019-03-31T08:13:40.397Z,15.08
2019-03-31T08:14:40.053Z,15.26
2019-03-31T08:15:40.046Z,15.26
2019-03-31T08:16:40.088Z,15.41
2019-03-31T08:17:42.783Z,14.48
2019-03-31T08:18:40.081Z,14.77
2019-03-31T08:20:39.969Z,15.51
2019-03-31T08:21:40.041Z,15.78
2019-03-31T08:22:40.070Z,14.86
2019-03-31T08:25:39.905Z,14.93
2019-03-31T08:26:40.200Z,14.49
2019-03-31T08:27:39.848Z,15.29
2019-03-31T08:28:39.832Z,15.84
2019-03-31T08:29:39.917Z,15.58
2019-03-31T08:30:39.976Z,14.92
2019-03-31T08:31:39.817Z,14.38
2019-03-31T08:32:39.871Z,14.27
2019-03-31T08:33:40.384Z,13.58
2019-03-31T08:34:39.881Z,13.08
2019-03-31T08:38:39.761Z,12.38
2019-03-31T08:39:39.666Z,11.70
2019-03-31T08:40:39.951Z,11.76
2019-03-31T08:41:39.692Z,12.03
2019-03-31T08:42:39.704Z,12.65
2019-03-31T08:43:39.628Z,13.61
2019-03-31T08:44:39.588Z,14.03
2019-03-31T08:45:39.699Z,14.23
2019-03-31T08:46:39.573Z,13.94
2019-03-31T08:47:39.855Z,14.00
2019-03-31T08:48:39.549Z,13.94
2019-03-31T08:49:39.627Z,13.76
2019-03-31T08:50:39.503Z,13.05
2019-03-31T08:51:39.663Z,13.06
2019-03-31T08:52:41.189Z,13.23
2019-03-31T08:53:39.793Z,13.17
2019-03-31T08:54:39.840Z,12.43
2019-03-31T08:55:39.605Z,12.47
2019-03-31T08:56:39.416Z,12.47
2019-03-31T08:58:39.389Z,12.69
2019-03-31T08:59:39.475Z,12.33
2019-03-31T09:00:39.367Z,11.91
2019-03-31T09:01:39.774Z,12.63
2019-03-31T09:02:39.325Z,13.36
2019-03-31T09:03:39.442Z,14.37
2019-03-31T09:04:39.347Z,15.20
2019-03-31T09:06:39.318Z,15.33
2019-03-31T09:08:39.528Z,15.52
2019-03-31T09:09:39.215Z,14.34
2019-03-31T09:10:39.197Z,14.89
2019-03-31T09:11:39.392Z,14.83
2019-03-31T09:12:39.165Z,14.74
2019-03-31T09:13:39.292Z,15.29
2019-03-31T09:14:39.136Z,15.50
2019-03-31T09:15:39.804Z,15.56
2019-03-31T09:16:39.208Z,15.12
2019-03-31T09:17:39.110Z,15.88
2019-03-31T09:18:39.204Z,16.80
2019-03-31T09:19:39.096Z,16.32
2019-03-31T09:20:39.213Z,15.69
2019-03-31T09:22:39.477Z,15.23
2019-03-31T09:24:39.028Z,14.52
2019-03-31T09:25:39.158Z,14.59
2019-03-31T09:26:39.199Z,14.51
2019-03-31T09:27:39.203Z,15.08
2019-03-31T09:28:39.326Z,14.23
2019-03-31T09:29:39.122Z,14.55
2019-03-31T09:31:39.108Z,14.56
2019-03-31T09:32:38.949Z,14.21
2019-03-31T09:33:39.559Z,12.99
2019-03-31T09:34:39.184Z,12.32
2019-03-31T09:35:38.925Z,11.88
2019-03-31T09:36:38.878Z,12.15
2019-03-31T09:37:38.861Z,12.86
2019-03-31T09:40:39.204Z,11.51
2019-03-31T09:41:38.798Z,11.80
2019-03-31T09:43:38.923Z,12.43
2019-03-31T09:44:38.753Z,12.77
2019-03-31T09:45:38.779Z,13.06
2019-03-31T09:47:39.049Z,12.03
2019-03-31T09:48:38.793Z,12.05
2019-03-31T09:49:38.679Z,12.72
2019-03-31T09:50:38.699Z,13.54
2019-03-31T09:51:38.942Z,13.45
2019-03-31T09:52:38.771Z,13.76
2019-03-31T09:53:39.132Z,13.08
2019-03-31T09:54:38.697Z,13.42
2019-03-31T09:56:38.624Z,14.22
2019-03-31T09:57:38.688Z,14.41
2019-03-31T09:58:38.768Z,14.09
2019-03-31T09:59:38.945Z,14.23
2019-03-31T10:00:38.946Z,15.47
2019-03-31T10:01:38.513Z,16.67
2019-03-31T10:02:38.492Z,16.39
2019-03-31T10:03:38.481Z,15.65
2019-03-31T10:04:38.481Z,13.93
2019-03-31T10:05:38.618Z,13.20
2019-03-31T10:06:38.549Z,12.05
2019-03-31T10:07:38.831Z,11.69
2019-03-31T10:08:38.425Z,11.59
2019-03-31T10:10:38.478Z,11.96
2019-03-31T10:11:38.394Z,12.46
2019-03-31T10:13:38.452Z,13.58
2019-03-31T10:14:38.714Z,13.53
2019-03-31T10:15:39.829Z,13.54
2019-03-31T10:16:38.490Z,13.43
2019-03-31T10:17:38.375Z,14.00
2019-03-31T10:18:38.412Z,14.04
2019-03-31T10:21:38.368Z,16.14
2019-03-31T10:22:38.583Z,14.82
2019-03-31T10:23:38.293Z,13.97
2019-03-31T10:24:38.191Z,12.93
2019-03-31T10:25:38.425Z,12.93
2019-03-31T10:26:38.182Z,12.71
2019-03-31T10:27:38.192Z,12.13
2019-03-31T10:28:38.365Z,12.22
2019-03-31T10:29:38.560Z,12.91
2019-03-31T10:30:38.161Z,13.54
2019-03-31T10:31:38.434Z,13.79
2019-03-31T10:32:38.184Z,14.31
2019-03-31T10:33:38.174Z,14.52
2019-03-31T10:34:38.147Z,13.98
2019-03-31T10:37:38.037Z,15.04
2019-03-31T10:38:38.298Z,14.58
2019-03-31T10:39:37.990Z,14.09
2019-03-31T10:40:38.022Z,15.32
2019-03-31T10:41:38.091Z,16.42
2019-03-31T10:42:37.949Z,16.37
2019-03-31T10:43:38.222Z,17.02
2019-03-31T10:44:38.181Z,17.79
2019-03-31T10:45:38.505Z,17.91
2019-03-31T10:46:37.990Z,16.08
2019-03-31T10:47:38.179Z,14.23
2019-03-31T10:48:38.095Z,14.11
2019-03-31T10:49:37.975Z,14.30
2019-03-31T10:51:38.151Z,15.29
2019-03-31T10:53:37.943Z,15.35
2019-03-31T10:54:37.840Z,15.90
2019-03-31T10:55:37.904Z,16.70
2019-03-31T10:56:37.911Z,16.91
2019-03-31T10:57:38.092Z,17.06
2019-03-31T11:01:37.737Z,18.09
2019-03-31T11:02:37.724Z,18.24
2019-03-31T11:03:38.011Z,18.05
2019-03-31T11:04:37.698Z,18.28
2019-03-31T11:05:37.991Z,18.54
2019-03-31T11:06:37.677Z,18.36
2019-03-31T11:08:37.820Z,18.12
2019-03-31T11:09:38.056Z,17.10
2019-03-31T11:10:37.691Z,14.52
2019-03-31T11:11:37.637Z,14.53
2019-03-31T11:12:37.914Z,14.78
2019-03-31T11:15:37.685Z,16.17
2019-03-31T11:17:37.911Z,16.90
2019-03-31T11:18:37.666Z,17.41
2019-03-31T11:19:37.608Z,17.83
2019-03-31T11:20:37.551Z,17.41
2019-03-31T11:21:40.311Z,17.27
2019-03-31T11:22:37.568Z,17.20
2019-03-31T11:23:37.937Z,16.18
2019-03-31T11:24:37.613Z,14.58
2019-03-31T11:25:37.604Z,13.88
2019-03-31T11:26:37.503Z,13.65
2019-03-31T11:27:37.592Z,13.51
2019-03-31T11:28:37.528Z,13.98
2019-03-31T11:29:37.776Z,14.15
2019-03-31T11:30:37.632Z,14.22
2019-03-31T11:31:37.837Z,14.28
2019-03-31T11:32:37.533Z,14.58
2019-03-31T11:33:37.432Z,15.03
2019-03-31T11:34:37.445Z,15.14
2019-03-31T11:35:37.405Z,14.96
2019-03-31T11:36:37.693Z,15.25
2019-03-31T11:37:37.376Z,15.26
2019-03-31T11:38:37.377Z,15.76
2019-03-31T11:39:37.363Z,15.96
2019-03-31T11:40:37.335Z,15.47
2019-03-31T11:41:37.325Z,14.77
2019-03-31T11:44:37.304Z,16.52
2019-03-31T11:46:37.587Z,17.79
2019-03-31T11:47:37.607Z,18.42
2019-03-31T11:48:37.630Z,18.60
2019-03-31T11:49:37.962Z,18.85
2019-03-31T11:51:37.239Z,19.20
2019-03-31T11:52:37.245Z,19.23
2019-03-31T11:53:37.533Z,19.70
2019-03-31T11:55:37.206Z,19.32
2019-03-31T11:57:37.188Z,18.17
2019-03-31T12:01:37.480Z,16.84
2019-03-31T12:04:37.354Z,18.36
2019-03-31T12:05:37.136Z,18.66
2019-03-31T12:07:46.776Z,18.54
2019-03-31T12:08:37.515Z,18.42
2019-03-31T12:11:37.263Z,18.23
2019-03-31T12:14:37.350Z,18.30
2019-03-31T12:16:37.050Z,18.24
2019-03-31T12:17:37.026Z,18.30
2019-03-31T12:18:37.028Z,18.68
2019-03-31T12:20:37.121Z,19.35
2019-03-31T12:21:37.320Z,18.88
2019-03-31T12:23:37.019Z,18.56
2019-03-31T12:24:37.077Z,18.20
2019-03-31T12:25:37.195Z,18.03
2019-03-31T12:27:36.953Z,18.93
2019-03-31T12:29:37.369Z,18.52
2019-03-31T12:31:36.918Z,18.75
2019-03-31T12:32:38.649Z,18.71
2019-03-31T12:33:36.903Z,19.23
2019-03-31T12:34:37.062Z,19.87
2019-03-31T12:37:42.778Z,19.68
2019-03-31T12:38:36.866Z,19.75
2019-03-31T12:40:36.912Z,18.09
2019-03-31T12:41:37.349Z,18.17
2019-03-31T12:42:37.598Z,18.26
2019-03-31T12:44:36.839Z,18.38
2019-03-31T12:45:36.861Z,18.79
2019-03-31T12:46:36.819Z,16.98
2019-03-31T12:47:37.117Z,16.73
2019-03-31T12:48:36.818Z,17.63
2019-03-31T12:52:46.671Z,18.64
2019-03-31T12:53:37.004Z,18.56
2019-03-31T12:55:36.736Z,18.38
2019-03-31T12:56:37.027Z,17.79
2019-03-31T12:58:36.921Z,18.56
2019-03-31T12:59:37.018Z,17.88
2019-03-31T13:00:36.701Z,17.97
2019-03-31T13:01:36.692Z,17.86
2019-03-31T13:02:37.773Z,18.56
2019-03-31T13:03:36.805Z,18.56
2019-03-31T13:04:36.881Z,18.86
2019-03-31T13:06:36.964Z,18.34
2019-03-31T13:07:36.650Z,17.12
2019-03-31T13:08:36.664Z,16.92
2019-03-31T13:09:36.628Z,16.95
2019-03-31T13:10:36.635Z,18.03
2019-03-31T13:12:36.806Z,18.91
2019-03-31T13:13:37.371Z,19.47
2019-03-31T13:14:36.661Z,19.97
2019-03-31T13:15:36.587Z,19.26
2019-03-31T13:16:36.812Z,18.27
2019-03-31T13:17:36.585Z,16.88
2019-03-31T13:19:36.956Z,17.31
2019-03-31T13:20:36.988Z,18.17
2019-03-31T13:21:37.033Z,18.96
2019-03-31T13:22:36.530Z,18.91
2019-03-31T13:23:36.826Z,17.62
2019-03-31T13:26:36.625Z,18.78
2019-03-31T13:31:36.891Z,18.86
2019-03-31T13:32:36.546Z,18.75
2019-03-31T13:33:36.626Z,18.97
2019-03-31T13:35:37.992Z,19.67
2019-03-31T13:36:36.432Z,19.74
2019-03-31T13:37:36.422Z,19.52
2019-03-31T13:38:36.739Z,19.79
2019-03-31T13:40:36.486Z,19.67
2019-03-31T13:41:36.474Z,19.79
2019-03-31T13:42:36.440Z,19.53
2019-03-31T13:46:37.040Z,19.75
2019-03-31T13:47:36.351Z,19.96
2019-03-31T13:48:36.407Z,19.75
2019-03-31T13:49:36.326Z,20.08
2019-03-31T13:51:36.654Z,19.97
2019-03-31T13:55:36.396Z,18.45
2019-03-31T13:56:37.246Z,17.25
2019-03-31T13:58:38.294Z,18.70
2019-03-31T13:59:36.282Z,19.47
2019-03-31T14:00:36.751Z,19.72
2019-03-31T14:01:36.410Z,19.04
2019-03-31T14:02:36.338Z,19.08
2019-03-31T14:03:37.083Z,18.51
2019-03-31T14:04:50.686Z,18.38
2019-03-31T14:06:36.668Z,19.09
2019-03-31T14:09:36.244Z,16.82
2019-03-31T14:10:36.932Z,17.59
2019-03-31T14:11:36.380Z,18.51
2019-03-31T14:12:36.469Z,19.23
2019-03-31T14:13:36.152Z,19.54
2019-03-31T14:14:36.149Z,19.22
2019-03-31T14:15:36.434Z,18.74
2019-03-31T14:18:36.406Z,19.31
2019-03-31T14:19:36.515Z,19.54
2019-03-31T14:20:36.216Z,19.60
2019-03-31T14:21:36.091Z,19.37
2019-03-31T14:23:36.088Z,19.45
2019-03-31T14:24:36.388Z,19.38
2019-03-31T14:26:36.051Z,19.68
2019-03-31T14:28:36.050Z,18.26
2019-03-31T14:29:36.043Z,18.36
2019-03-31T14:30:36.325Z,17.76
2019-03-31T14:31:36.170Z,17.86
2019-03-31T14:32:36.018Z,17.62
2019-03-31T14:35:38.028Z,17.34
2019-03-31T14:36:36.363Z,18.27
2019-03-31T14:37:36.011Z,18.67
2019-03-31T14:38:40.350Z,18.63
2019-03-31T14:39:36.105Z,19.31
2019-03-31T14:41:35.987Z,19.15
2019-03-31T14:42:36.227Z,18.38
2019-03-31T14:46:35.896Z,18.71
2019-03-31T14:48:35.879Z,18.67
2019-03-31T14:51:36.816Z,18.74
2019-03-31T14:53:35.829Z,18.86
2019-03-31T14:55:36.168Z,18.68
2019-03-31T14:56:36.102Z,18.64
2019-03-31T14:58:36.182Z,18.42
2019-03-31T14:59:35.856Z,18.52
2019-03-31T15:01:35.752Z,18.64
2019-03-31T15:02:35.778Z,18.79
2019-03-31T15:03:35.732Z,18.91
2019-03-31T15:04:35.829Z,18.57
2019-03-31T15:05:36.212Z,18.51
2019-03-31T15:06:35.821Z,19.12
2019-03-31T15:07:35.713Z,19.37
2019-03-31T15:08:36.124Z,19.42
2019-03-31T15:10:35.681Z,18.85
2019-03-31T15:11:35.684Z,19.04
2019-03-31T15:12:35.957Z,18.64
2019-03-31T15:13:35.733Z,18.17
2019-03-31T15:15:35.965Z,17.52
2019-03-31T15:16:35.730Z,17.47
2019-03-31T15:18:35.672Z,18.12
2019-03-31T15:19:35.902Z,17.10
2019-03-31T15:20:35.609Z,17.35
2019-03-31T15:21:43.920Z,17.57
2019-03-31T15:23:35.558Z,17.97
2019-03-31T15:24:35.591Z,18.12
2019-03-31T15:25:35.918Z,18.27
2019-03-31T15:27:35.613Z,18.74
2019-03-31T15:28:35.623Z,18.68
2019-03-31T15:29:35.516Z,18.43
2019-03-31T15:30:35.523Z,18.21
2019-03-31T15:31:35.484Z,17.99
2019-03-31T15:32:35.830Z,18.15
2019-03-31T15:35:37.732Z,17.34
2019-03-31T15:36:35.509Z,17.39
2019-03-31T15:38:35.522Z,17.24
2019-03-31T15:39:35.416Z,17.30
2019-03-31T15:40:35.485Z,17.10
2019-03-31T15:41:35.906Z,17.13
2019-03-31T15:42:35.417Z,17.02
2019-03-31T15:43:35.369Z,17.02
2019-03-31T15:44:35.435Z,17.22
2019-03-31T15:45:35.351Z,17.17
2019-03-31T15:46:35.522Z,17.20
2019-03-31T15:47:35.629Z,17.25
2019-03-31T15:49:35.332Z,17.39
2019-03-31T15:50:35.322Z,17.72
2019-03-31T15:51:35.309Z,18.09
2019-03-31T15:52:35.274Z,17.68
2019-03-31T15:53:35.598Z,17.06
2019-03-31T15:54:35.560Z,17.14
2019-03-31T15:55:35.507Z,17.10
2019-03-31T15:56:35.236Z,16.55
2019-03-31T15:57:35.223Z,16.47
2019-03-31T15:58:35.238Z,16.54
2019-03-31T15:59:35.516Z,16.32
2019-03-31T16:00:35.204Z,16.46
2019-03-31T16:02:35.207Z,16.64
2019-03-31T16:03:35.302Z,16.32
2019-03-31T16:04:35.134Z,15.93
2019-03-31T16:10:35.706Z,16.44
2019-03-31T16:15:35.130Z,16.79
2019-03-31T16:18:35.009Z,16.67